sensor_id;sensor_type;location;lat;lon;timestamp;pressure;altitude;pressure_sealevel;temperature;humidity
55456;BME280;63021;52.836;6.376;2023-01-26T00:01:42;102614.97;;;-0.18;82.61
55456;BME280;63021;52.836;6.376;2023-01-26T00:04:09;102611.53;;;-0.20;82.76
55456;BME280;63021;52.836;6.376;2023-01-26T00:06:34;102607.16;;;-0.19;82.65
55456;BME280;63021;52.836;6.376;2023-01-26T00:09:00;102604.53;;;-0.19;83.15
55456;BME280;63021;52.836;6.376;2023-01-26T00:11:26;102599.34;;;-0.21;82.75
55456;BME280;63021;52.836;6.376;2023-01-26T00:13:53;102605.50;;;-0.23;83.00
55456;BME280;63021;52.836;6.376;2023-01-26T00:16:19;102606.38;;;-0.23;82.52
55456;BME280;63021;52.836;6.376;2023-01-26T00:18:45;102606.38;;;-0.23;83.18
55456;BME280;63021;52.836;6.376;2023-01-26T00:21:12;102595.97;;;-0.26;83.25
55456;BME280;63021;52.836;6.376;2023-01-26T00:23:38;102596.78;;;-0.24;83.17
55456;BME280;63021;52.836;6.376;2023-01-26T00:26:09;102595.94;;;-0.24;83.05
55456;BME280;63021;52.836;6.376;2023-01-26T00:28:35;102582.88;;;-0.26;83.06
55456;BME280;63021;52.836;6.376;2023-01-26T00:31:02;102581.09;;;-0.24;83.40
55456;BME280;63021;52.836;6.376;2023-01-26T00:33:28;102583.69;;;-0.24;82.72
55456;BME280;63021;52.836;6.376;2023-01-26T00:35:53;102581.94;;;-0.23;82.75
55456;BME280;63021;52.836;6.376;2023-01-26T00:38:19;102583.69;;;-0.24;83.31
55456;BME280;63021;52.836;6.376;2023-01-26T00:40:44;102587.97;;;-0.20;83.34
55456;BME280;63021;52.836;6.376;2023-01-26T00:43:09;102587.97;;;-0.20;83.45
55456;BME280;63021;52.836;6.376;2023-01-26T00:45:35;102584.47;;;-0.19;83.47
55456;BME280;63021;52.836;6.376;2023-01-26T00:48:00;102580.94;;;-0.18;83.39
55456;BME280;63021;52.836;6.376;2023-01-26T00:50:26;102575.66;;;-0.16;82.60
55456;BME280;63021;52.836;6.376;2023-01-26T00:52:51;102579.97;;;-0.13;83.04
55456;BME280;63021;52.836;6.376;2023-01-26T00:55:18;102575.63;;;-0.14;82.91
55456;BME280;63021;52.836;6.376;2023-01-26T00:57:43;102577.34;;;-0.13;82.99
55456;BME280;63021;52.836;6.376;2023-01-26T01:00:09;102573.00;;;-0.14;83.70
55456;BME280;63021;52.836;6.376;2023-01-26T01:02:37;102572.13;;;-0.13;82.78
55456;BME280;63021;52.836;6.376;2023-01-26T01:05:03;102569.53;;;-0.15;83.13
55456;BME280;63021;52.836;6.376;2023-01-26T01:07:29;102566.91;;;-0.15;82.92
55456;BME280;63021;52.836;6.376;2023-01-26T01:09:54;102569.53;;;-0.15;83.12
55456;BME280;63021;52.836;6.376;2023-01-26T01:12:19;102571.25;;;-0.12;83.36
55456;BME280;63021;52.836;6.376;2023-01-26T01:14:45;102559.91;;;-0.13;83.32
55456;BME280;63021;52.836;6.376;2023-01-26T01:17:10;102574.66;;;-0.10;83.33
55456;BME280;63021;52.836;6.376;2023-01-26T01:19:35;102565.94;;;-0.09;83.29
55456;BME280;63021;52.836;6.376;2023-01-26T01:22:02;102572.03;;;-0.10;83.20
55456;BME280;63021;52.836;6.376;2023-01-26T01:24:28;102565.94;;;-0.09;82.78
55456;BME280;63021;52.836;6.376;2023-01-26T01:26:53;102565.88;;;-0.08;82.56
55456;BME280;63021;52.836;6.376;2023-01-26T01:29:18;102566.78;;;-0.09;83.02
55456;BME280;63021;52.836;6.376;2023-01-26T01:31:44;102571.09;;;-0.06;83.36
55456;BME280;63021;52.836;6.376;2023-01-26T01:34:09;102571.09;;;-0.06;83.19
55456;BME280;63021;52.836;6.376;2023-01-26T01:36:35;102564.13;;;-0.07;83.03
55456;BME280;63021;52.836;6.376;2023-01-26T01:39:00;102567.59;;;-0.05;83.31
55456;BME280;63021;52.836;6.376;2023-01-26T01:41:26;102575.41;;;-0.04;83.39
55456;BME280;63021;52.836;6.376;2023-01-26T01:44:11;102567.50;;;-0.02;82.69
55456;BME280;63021;52.836;6.376;2023-01-26T01:46:38;102565.78;;;-0.03;83.38
55456;BME280;63021;52.836;6.376;2023-01-26T01:49:13;102566.63;;;-0.01;83.52
55456;BME280;63021;52.836;6.376;2023-01-26T01:51:44;102558.75;;;-0.01;83.37
55456;BME280;63021;52.836;6.376;2023-01-26T01:54:14;102559.56;;;0.01;82.44
55456;BME280;63021;52.836;6.376;2023-01-26T01:56:44;102557.88;;;0.00;83.36
55456;BME280;63021;52.836;6.376;2023-01-26T01:59:11;102562.19;;;0.01;83.24
55456;BME280;63021;52.836;6.376;2023-01-26T02:01:37;102569.13;;;0.04;83.41
55456;BME280;63021;52.836;6.376;2023-01-26T02:04:04;102564.78;;;0.03;83.39
55456;BME280;63021;52.836;6.376;2023-01-26T02:06:47;102557.78;;;0.03;82.88
55456;BME280;63021;52.836;6.376;2023-01-26T02:09:15;102562.06;;;0.06;82.99
55456;BME280;63021;52.836;6.376;2023-01-26T02:12:05;102564.69;;;0.07;82.98
55456;BME280;63021;52.836;6.376;2023-01-26T02:14:33;102560.25;;;0.09;83.42
55456;BME280;63021;52.836;6.376;2023-01-26T02:16:58;102562.84;;;0.11;83.49
55456;BME280;63021;52.836;6.376;2023-01-26T02:19:46;102557.56;;;0.12;83.50
55456;BME280;63021;52.836;6.376;2023-01-26T02:24:52;102564.56;;;0.12;83.28
55456;BME280;63021;52.836;6.376;2023-01-26T02:27:19;102555.81;;;0.11;82.97
55456;BME280;63021;52.836;6.376;2023-01-26T02:29:45;102558.41;;;0.14;83.11
55456;BME280;63021;52.836;6.376;2023-01-26T02:32:10;102564.44;;;0.16;83.47
55456;BME280;63021;52.836;6.376;2023-01-26T02:34:36;102558.34;;;0.16;83.64
55456;BME280;63021;52.836;6.376;2023-01-26T02:37:01;102567.91;;;0.17;83.36
55456;BME280;63021;52.836;6.376;2023-01-26T02:39:37;102575.78;;;0.17;83.04
55456;BME280;63021;52.836;6.376;2023-01-26T02:42:04;102573.13;;;0.19;82.86
55456;BME280;63021;52.836;6.376;2023-01-26T02:44:49;102567.88;;;0.19;83.18
55456;BME280;63021;52.836;6.376;2023-01-26T02:47:17;102567.03;;;0.18;83.74
55456;BME280;63021;52.836;6.376;2023-01-26T02:49:43;102569.59;;;0.20;82.96
55456;BME280;63021;52.836;6.376;2023-01-26T02:52:12;102560.84;;;0.21;83.15
55456;BME280;63021;52.836;6.376;2023-01-26T02:54:38;102559.09;;;0.21;83.23
55456;BME280;63021;52.836;6.376;2023-01-26T02:57:21;102566.09;;;0.21;83.44
55456;BME280;63021;52.836;6.376;2023-01-26T02:59:47;102562.50;;;0.25;83.20
55456;BME280;63021;52.836;6.376;2023-01-26T03:02:15;102554.69;;;0.23;83.41
55456;BME280;63021;52.836;6.376;2023-01-26T03:04:41;102560.69;;;0.27;83.02
55456;BME280;63021;52.836;6.376;2023-01-26T03:07:07;102561.56;;;0.27;83.47
55456;BME280;63021;52.836;6.376;2023-01-26T03:09:33;102554.56;;;0.28;83.27
55456;BME280;63021;52.836;6.376;2023-01-26T03:11:58;102565.00;;;0.29;82.88
55456;BME280;63021;52.836;6.376;2023-01-26T03:14:24;102555.34;;;0.31;82.98
55456;BME280;63021;52.836;6.376;2023-01-26T03:16:49;102561.41;;;0.33;83.84
55456;BME280;63021;52.836;6.376;2023-01-26T03:19:15;102564.00;;;0.35;82.97
55456;BME280;63021;52.836;6.376;2023-01-26T03:21:59;102563.97;;;0.37;82.93
55456;BME280;63021;52.836;6.376;2023-01-26T03:24:44;102560.44;;;0.38;83.39
55456;BME280;63021;52.836;6.376;2023-01-26T03:27:40;102561.28;;;0.38;83.33
55456;BME280;63021;52.836;6.376;2023-01-26T03:30:06;102561.25;;;0.40;82.90
55456;BME280;63021;52.836;6.376;2023-01-26T03:32:31;102556.88;;;0.40;83.22
55456;BME280;63021;52.836;6.376;2023-01-26T03:34:57;102562.94;;;0.42;82.98
55456;BME280;63021;52.836;6.376;2023-01-26T03:37:22;102554.16;;;0.45;83.65
55456;BME280;63021;52.836;6.376;2023-01-26T03:39:49;102558.44;;;0.47;83.55
55456;BME280;63021;52.836;6.376;2023-01-26T03:42:34;102558.41;;;0.49;82.65
55456;BME280;63021;52.836;6.376;2023-01-26T03:45:18;102554.06;;;0.48;83.32
55456;BME280;63021;52.836;6.376;2023-01-26T03:48:04;102556.66;;;0.49;83.70
55456;BME280;63021;52.836;6.376;2023-01-26T03:50:47;102548.78;;;0.49;83.26
55456;BME280;63021;52.836;6.376;2023-01-26T03:53:31;102554.88;;;0.50;82.64
55456;BME280;63021;52.836;6.376;2023-01-26T03:56:15;102544.44;;;0.48;83.16
55456;BME280;63021;52.836;6.376;2023-01-26T03:58:51;102547.00;;;0.50;83.38
55456;BME280;63021;52.836;6.376;2023-01-26T04:01:18;102547.81;;;0.54;83.45
55456;BME280;63021;52.836;6.376;2023-01-26T04:03:49;102546.03;;;0.54;83.09
55456;BME280;63021;52.836;6.376;2023-01-26T04:06:34;102543.41;;;0.54;83.04
55456;BME280;63021;52.836;6.376;2023-01-26T04:09:20;102552.13;;;0.55;82.68
55456;BME280;63021;52.836;6.376;2023-01-26T04:11:46;102544.25;;;0.56;83.50
55456;BME280;63021;52.836;6.376;2023-01-26T04:14:13;102545.09;;;0.57;83.25
55456;BME280;63021;52.836;6.376;2023-01-26T04:16:58;102532.91;;;0.56;82.70
55456;BME280;63021;52.836;6.376;2023-01-26T04:19:42;102538.94;;;0.59;82.86
55456;BME280;63021;52.836;6.376;2023-01-26T04:22:26;102531.91;;;0.60;83.46
55456;BME280;63021;52.836;6.376;2023-01-26T04:24:52;102536.25;;;0.61;83.33
55456;BME280;63021;52.836;6.376;2023-01-26T04:27:17;102529.28;;;0.60;83.58
55456;BME280;63021;52.836;6.376;2023-01-26T04:29:43;102526.63;;;0.61;83.02
55456;BME280;63021;52.836;6.376;2023-01-26T04:32:08;102522.28;;;0.62;82.77
55456;BME280;63021;52.836;6.376;2023-01-26T04:34:34;102530.94;;;0.64;83.15
55456;BME280;63021;52.836;6.376;2023-01-26T04:36:59;102532.72;;;0.63;83.69
55456;BME280;63021;52.836;6.376;2023-01-26T04:39:25;102530.03;;;0.65;83.60
55456;BME280;63021;52.836;6.376;2023-01-26T04:41:50;102530.84;;;0.67;83.51
55456;BME280;63021;52.836;6.376;2023-01-26T04:44:15;102533.47;;;0.67;83.05
55456;BME280;63021;52.836;6.376;2023-01-26T04:46:41;102525.59;;;0.67;83.43
55456;BME280;63021;52.836;6.376;2023-01-26T04:49:07;102525.59;;;0.67;83.61
55456;BME280;63021;52.836;6.376;2023-01-26T04:51:33;102522.91;;;0.70;83.73
55456;BME280;63021;52.836;6.376;2023-01-26T04:53:59;102515.91;;;0.71;83.32
55456;BME280;63021;52.836;6.376;2023-01-26T04:56:32;102517.66;;;0.70;83.46
55456;BME280;63021;52.836;6.376;2023-01-26T04:58:59;102528.09;;;0.72;82.78
55456;BME280;63021;52.836;6.376;2023-01-26T05:01:25;102514.94;;;0.73;83.34
55456;BME280;63021;52.836;6.376;2023-01-26T05:03:50;102514.94;;;0.73;83.86
55456;BME280;63021;52.836;6.376;2023-01-26T05:06:16;102511.44;;;0.74;82.80
55456;BME280;63021;52.836;6.376;2023-01-26T05:08:42;102514.91;;;0.75;82.66
55456;BME280;63021;52.836;6.376;2023-01-26T05:11:08;102505.34;;;0.74;83.18
55456;BME280;63021;52.836;6.376;2023-01-26T05:13:33;102506.19;;;0.74;83.13
55456;BME280;63021;52.836;6.376;2023-01-26T05:16:01;102509.66;;;0.75;82.71
55456;BME280;63021;52.836;6.376;2023-01-26T05:18:27;102506.19;;;0.74;83.03
55456;BME280;63021;52.836;6.376;2023-01-26T05:20:52;102503.53;;;0.76;82.83
55456;BME280;63021;52.836;6.376;2023-01-26T05:23:18;102509.66;;;0.76;83.01
55456;BME280;63021;52.836;6.376;2023-01-26T05:25:43;102515.78;;;0.75;83.33
55456;BME280;63021;52.836;6.376;2023-01-26T05:28:08;102514.88;;;0.76;82.89
55456;BME280;63021;52.836;6.376;2023-01-26T05:30:34;102514.00;;;0.76;83.26
55456;BME280;63021;52.836;6.376;2023-01-26T05:33:00;102510.44;;;0.78;82.60
55456;BME280;63021;52.836;6.376;2023-01-26T05:35:26;102519.16;;;0.79;83.85
55456;BME280;63021;52.836;6.376;2023-01-26T05:37:51;102510.44;;;0.78;83.38
55456;BME280;63021;52.836;6.376;2023-01-26T05:40:17;102507.84;;;0.78;83.40
55456;BME280;63021;52.836;6.376;2023-01-26T05:42:42;102510.41;;;0.80;83.11
55456;BME280;63021;52.836;6.376;2023-01-26T05:45:09;102515.59;;;0.81;82.87
55456;BME280;63021;52.836;6.376;2023-01-26T05:47:35;102524.31;;;0.82;83.16
55456;BME280;63021;52.836;6.376;2023-01-26T05:50:00;102522.63;;;0.81;83.76
55456;BME280;63021;52.836;6.376;2023-01-26T05:52:26;102525.19;;;0.82;82.92
55456;BME280;63021;52.836;6.376;2023-01-26T05:54:52;102520.81;;;0.83;83.15
55456;BME280;63021;52.836;6.376;2023-01-26T05:57:17;102532.16;;;0.83;83.25
55456;BME280;63021;52.836;6.376;2023-01-26T05:59:42;102529.53;;;0.83;83.48
55456;BME280;63021;52.836;6.376;2023-01-26T06:02:10;102525.09;;;0.85;83.34
55456;BME280;63021;52.836;6.376;2023-01-26T06:04:35;102532.16;;;0.83;83.16
55456;BME280;63021;52.836;6.376;2023-01-26T06:07:01;102530.41;;;0.84;83.73
55456;BME280;63021;52.836;6.376;2023-01-26T06:09:26;102532.06;;;0.86;83.23
55456;BME280;63021;52.836;6.376;2023-01-26T06:11:52;102532.94;;;0.87;82.93
55456;BME280;63021;52.836;6.376;2023-01-26T06:14:17;102531.16;;;0.88;83.26
55456;BME280;63021;52.836;6.376;2023-01-26T06:16:42;102539.91;;;0.88;83.68
55456;BME280;63021;52.836;6.376;2023-01-26T06:19:09;102540.66;;;0.92;83.82
55456;BME280;63021;52.836;6.376;2023-01-26T06:21:35;102541.59;;;0.91;82.98
55456;BME280;63021;52.836;6.376;2023-01-26T06:24:01;102541.53;;;0.92;83.61
55456;BME280;63021;52.836;6.376;2023-01-26T06:26:27;102539.78;;;0.93;83.55
55456;BME280;63021;52.836;6.376;2023-01-26T06:28:52;102533.69;;;0.92;82.80
55456;BME280;63021;52.836;6.376;2023-01-26T06:31:19;102534.53;;;0.93;83.23
55456;BME280;63021;52.836;6.376;2023-01-26T06:33:45;102534.53;;;0.93;83.27
55456;BME280;63021;52.836;6.376;2023-01-26T06:36:13;102537.94;;;0.95;83.83
55456;BME280;63021;52.836;6.376;2023-01-26T06:38:44;102544.91;;;0.96;83.64
55456;BME280;63021;52.836;6.376;2023-01-26T06:41:10;102548.38;;;0.98;83.28
55456;BME280;63021;52.836;6.376;2023-01-26T06:43:36;102551.81;;;1.00;83.64
55456;BME280;63021;52.836;6.376;2023-01-26T06:46:02;102538.69;;;1.00;83.94
55456;BME280;63021;52.836;6.376;2023-01-26T06:48:29;102543.03;;;1.01;83.59
55456;BME280;63021;52.836;6.376;2023-01-26T06:50:57;102538.59;;;1.03;83.08
55456;BME280;63021;52.836;6.376;2023-01-26T06:53:36;102549.09;;;1.03;83.20
55456;BME280;63021;52.836;6.376;2023-01-26T06:56:03;102548.19;;;1.04;82.81
55456;BME280;63021;52.836;6.376;2023-01-26T06:58:28;102556.91;;;1.04;82.98
55456;BME280;63021;52.836;6.376;2023-01-26T07:00:54;102556.91;;;1.04;83.36
55456;BME280;63021;52.836;6.376;2023-01-26T07:03:19;102562.13;;;1.06;82.98
55456;BME280;63021;52.836;6.376;2023-01-26T07:05:45;102559.53;;;1.04;82.85
55456;BME280;63021;52.836;6.376;2023-01-26T07:08:10;102561.25;;;1.06;82.96
55456;BME280;63021;52.836;6.376;2023-01-26T07:10:36;102567.34;;;1.06;83.30
55456;BME280;63021;52.836;6.376;2023-01-26T07:13:03;102567.34;;;1.06;83.58
55456;BME280;63021;52.836;6.376;2023-01-26T07:15:29;102573.50;;;1.07;82.99
55456;BME280;63021;52.836;6.376;2023-01-26T07:17:58;102583.94;;;1.08;83.26
55456;BME280;63021;52.836;6.376;2023-01-26T07:20:24;102588.28;;;1.08;83.60
55456;BME280;63021;52.836;6.376;2023-01-26T07:22:50;102590.97;;;1.06;82.77
55456;BME280;63021;52.836;6.376;2023-01-26T07:25:17;102591.84;;;1.07;83.65
55456;BME280;63021;52.836;6.376;2023-01-26T07:27:42;102583.06;;;1.08;83.37
55456;BME280;63021;52.836;6.376;2023-01-26T07:30:09;102592.69;;;1.07;83.68
55456;BME280;63021;52.836;6.376;2023-01-26T07:32:36;102590.06;;;1.07;83.56
55456;BME280;63021;52.836;6.376;2023-01-26T07:35:01;102592.69;;;1.07;82.59
55456;BME280;63021;52.836;6.376;2023-01-26T07:37:28;102591.84;;;1.07;82.94
55456;BME280;63021;52.836;6.376;2023-01-26T07:39:53;102598.84;;;1.06;83.14
55456;BME280;63021;52.836;6.376;2023-01-26T07:42:19;102601.47;;;1.06;82.79
55456;BME280;63021;52.836;6.376;2023-01-26T07:44:44;102606.63;;;1.09;82.82
55456;BME280;63021;52.836;6.376;2023-01-26T07:47:09;102604.00;;;1.09;83.51
55456;BME280;63021;52.836;6.376;2023-01-26T07:49:35;102607.44;;;1.11;83.18
55456;BME280;63021;52.836;6.376;2023-01-26T07:52:00;102610.06;;;1.11;83.19
55456;BME280;63021;52.836;6.376;2023-01-26T07:54:26;102606.59;;;1.11;83.20
55456;BME280;63021;52.836;6.376;2023-01-26T07:56:52;102614.44;;;1.12;82.69
55456;BME280;63021;52.836;6.376;2023-01-26T07:59:19;102611.81;;;1.12;83.24
55456;BME280;63021;52.836;6.376;2023-01-26T08:01:44;102611.81;;;1.12;83.03
55456;BME280;63021;52.836;6.376;2023-01-26T08:04:10;102606.56;;;1.12;82.60
55456;BME280;63021;52.836;6.376;2023-01-26T08:06:36;102602.13;;;1.14;82.96
55456;BME280;63021;52.836;6.376;2023-01-26T08:09:02;102606.47;;;1.15;82.28
55456;BME280;63021;52.836;6.376;2023-01-26T08:11:28;102612.56;;;1.16;83.67
55456;BME280;63021;52.836;6.376;2023-01-26T08:13:54;102609.91;;;1.17;83.23
55456;BME280;63021;52.836;6.376;2023-01-26T08:16:19;102613.34;;;1.19;82.71
55456;BME280;63021;52.836;6.376;2023-01-26T08:18:45;102622.97;;;1.19;83.56
55456;BME280;63021;52.836;6.376;2023-01-26T08:21:12;102618.66;;;1.16;82.75
55456;BME280;63021;52.836;6.376;2023-01-26T08:23:38;102615.13;;;1.17;82.73
55456;BME280;63021;52.836;6.376;2023-01-26T08:26:05;102623.00;;;1.17;83.48
55456;BME280;63021;52.836;6.376;2023-01-26T08:28:32;102621.28;;;1.18;83.08
55456;BME280;63021;52.836;6.376;2023-01-26T08:31:06;102623.84;;;1.19;82.32
55456;BME280;63021;52.836;6.376;2023-01-26T08:33:33;102622.97;;;1.19;82.41
55456;BME280;63021;52.836;6.376;2023-01-26T08:36:03;102622.97;;;1.19;83.23
55456;BME280;63021;52.836;6.376;2023-01-26T08:38:29;102619.44;;;1.20;82.90
55456;BME280;63021;52.836;6.376;2023-01-26T08:40:56;102616.81;;;1.20;82.76
55456;BME280;63021;52.836;6.376;2023-01-26T08:43:21;102620.34;;;1.19;83.18
55456;BME280;63021;52.836;6.376;2023-01-26T08:45:47;102621.28;;;1.18;82.85
55456;BME280;63021;52.836;6.376;2023-01-26T08:48:12;102621.22;;;1.19;82.90
55456;BME280;63021;52.836;6.376;2023-01-26T08:50:38;102621.03;;;1.26;82.88
55456;BME280;63021;52.836;6.376;2023-01-26T08:53:03;102612.19;;;1.30;83.45
55456;BME280;63021;52.836;6.376;2023-01-26T08:55:28;102629.44;;;1.38;82.80
55456;BME280;63021;52.836;6.376;2023-01-26T08:57:54;102630.13;;;1.45;82.56
55456;BME280;63021;52.836;6.376;2023-01-26T09:00:21;102626.44;;;1.52;83.32
55456;BME280;63021;52.836;6.376;2023-01-26T09:02:46;102621.00;;;1.59;82.76
55456;BME280;63021;52.836;6.376;2023-01-26T09:05:13;102629.56;;;1.64;83.15
55456;BME280;63021;52.836;6.376;2023-01-26T09:07:39;102633.72;;;1.72;82.82
55456;BME280;63021;52.836;6.376;2023-01-26T09:10:04;102622.94;;;1.82;82.94
55456;BME280;63021;52.836;6.376;2023-01-26T09:12:30;102630.50;;;1.93;83.02
55456;BME280;63021;52.836;6.376;2023-01-26T09:14:55;102621.38;;;2.04;82.25
55456;BME280;63021;52.836;6.376;2023-01-26T09:17:21;102617.53;;;2.15;82.15
55456;BME280;63021;52.836;6.376;2023-01-26T09:19:46;102617.19;;;2.25;82.53
55456;BME280;63021;52.836;6.376;2023-01-26T09:22:12;102622.94;;;2.37;82.13
55456;BME280;63021;52.836;6.376;2023-01-26T09:24:37;102625.31;;;2.46;81.92
55456;BME280;63021;52.836;6.376;2023-01-26T09:27:04;102626.75;;;2.55;81.71
55456;BME280;63021;52.836;6.376;2023-01-26T09:29:31;102625.59;;;2.64;82.27
55456;BME280;63021;52.836;6.376;2023-01-26T09:31:56;102632.31;;;2.72;82.29
55456;BME280;63021;52.836;6.376;2023-01-26T09:34:21;102634.72;;;2.78;82.65
55456;BME280;63021;52.836;6.376;2023-01-26T09:36:49;102634.47;;;2.86;82.29
55456;BME280;63021;52.836;6.376;2023-01-26T09:39:15;102637.66;;;2.96;82.07
55456;BME280;63021;52.836;6.376;2023-01-26T09:41:55;102635.53;;;3.06;82.64
55456;BME280;63021;52.836;6.376;2023-01-26T09:44:30;102638.72;;;3.16;82.69
55456;BME280;63021;52.836;6.376;2023-01-26T09:54:48;102645.47;;;3.48;82.32
55456;BME280;63021;52.836;6.376;2023-01-26T09:57:18;102644.25;;;3.57;82.21
55456;BME280;63021;52.836;6.376;2023-01-26T10:05:06;102646.00;;;3.80;82.71
55456;BME280;63021;52.836;6.376;2023-01-26T10:07:35;102643.91;;;3.90;82.64
55456;BME280;63021;52.836;6.376;2023-01-26T10:10:02;102638.25;;;3.99;83.10
55456;BME280;63021;52.836;6.376;2023-01-26T10:12:31;102643.06;;;4.11;83.65
55456;BME280;63021;52.836;6.376;2023-01-26T10:17:29;102636.19;;;4.29;83.01
55456;BME280;63021;52.836;6.376;2023-01-26T10:20:03;102636.72;;;4.38;83.24
55456;BME280;63021;52.836;6.376;2023-01-26T10:22:43;102637.28;;;4.46;82.76
55456;BME280;63021;52.836;6.376;2023-01-26T10:25:26;102623.97;;;4.49;82.92
55456;BME280;63021;52.836;6.376;2023-01-26T10:27:54;102629.72;;;4.59;83.55
55456;BME280;63021;52.836;6.376;2023-01-26T10:30:20;102631.97;;;4.68;83.52
55456;BME280;63021;52.836;6.376;2023-01-26T10:32:47;102636.88;;;4.77;83.36
55456;BME280;63021;52.836;6.376;2023-01-26T10:35:24;102641.75;;;4.86;84.43
55456;BME280;63021;52.836;6.376;2023-01-26T10:37:50;102637.84;;;4.95;84.13
55456;BME280;63021;52.836;6.376;2023-01-26T10:40:20;102635.75;;;5.03;83.95
55456;BME280;63021;52.836;6.376;2023-01-26T10:42:57;102630.13;;;5.11;84.36
55456;BME280;63021;52.836;6.376;2023-01-26T10:45:30;102626.28;;;5.18;83.71
55456;BME280;63021;52.836;6.376;2023-01-26T10:50:40;102631.03;;;5.31;83.68
55456;BME280;63021;52.836;6.376;2023-01-26T10:53:14;102631.63;;;5.37;83.67
55456;BME280;63021;52.836;6.376;2023-01-26T10:55:40;102640.97;;;5.45;84.08
55456;BME280;63021;52.836;6.376;2023-01-26T10:58:45;102636.19;;;5.53;83.67
55456;BME280;63021;52.836;6.376;2023-01-26T11:01:13;102626.19;;;5.60;84.29
55456;BME280;63021;52.836;6.376;2023-01-26T11:04:03;102626.63;;;5.69;85.07
55456;BME280;63021;52.836;6.376;2023-01-26T11:06:30;102631.78;;;5.72;84.63
55456;BME280;63021;52.836;6.376;2023-01-26T11:11:39;102624.97;;;5.86;84.59
55456;BME280;63021;52.836;6.376;2023-01-26T11:14:15;102630.78;;;5.94;84.51
55456;BME280;63021;52.836;6.376;2023-01-26T11:16:44;102628.72;;;6.01;85.04
55456;BME280;63021;52.836;6.376;2023-01-26T11:19:14;102626.72;;;6.06;85.19
55456;BME280;63021;52.836;6.376;2023-01-26T11:21:54;102623.78;;;6.12;85.04
55456;BME280;63021;52.836;6.376;2023-01-26T11:24:42;102616.41;;;6.19;84.49
55456;BME280;63021;52.836;6.376;2023-01-26T11:27:21;102617.03;;;6.24;84.99
55456;BME280;63021;52.836;6.376;2023-01-26T11:47:38;102603.56;;;6.65;83.77
55456;BME280;63021;52.836;6.376;2023-01-26T11:50:27;102598.00;;;6.70;84.31
55456;BME280;63021;52.836;6.376;2023-01-26T12:00:48;102602.28;;;6.90;84.11
55456;BME280;63021;52.836;6.376;2023-01-26T12:03:46;102598.53;;;6.94;83.19
55456;BME280;63021;52.836;6.376;2023-01-26T12:08:50;102586.53;;;7.04;83.21
55456;BME280;63021;52.836;6.376;2023-01-26T12:16:48;102580.13;;;7.08;82.96
55456;BME280;63021;52.836;6.376;2023-01-26T12:21:53;102577.16;;;7.15;81.97
55456;BME280;63021;52.836;6.376;2023-01-26T12:24:45;102577.78;;;7.20;82.19
55456;BME280;63021;52.836;6.376;2023-01-26T12:30:20;102555.38;;;7.25;81.38
55456;BME280;63021;52.836;6.376;2023-01-26T12:32:46;102561.28;;;7.31;81.05
55456;BME280;63021;52.836;6.376;2023-01-26T12:35:13;102559.25;;;7.36;81.73
55456;BME280;63021;52.836;6.376;2023-01-26T12:37:54;102558.81;;;7.43;81.36
55456;BME280;63021;52.836;6.376;2023-01-26T12:46:09;102553.25;;;7.48;79.70
55456;BME280;63021;52.836;6.376;2023-01-26T12:49:03;102554.13;;;7.49;78.53
55456;BME280;63021;52.836;6.376;2023-01-26T12:51:40;102547.13;;;7.48;79.11
55456;BME280;63021;52.836;6.376;2023-01-26T12:54:16;102540.88;;;7.49;78.14
55456;BME280;63021;52.836;6.376;2023-01-26T12:56:53;102542.66;;;7.48;78.71
55456;BME280;63021;52.836;6.376;2023-01-26T12:59:37;102538.06;;;7.52;78.42
55456;BME280;63021;52.836;6.376;2023-01-26T13:04:42;102534.72;;;7.48;77.21
55456;BME280;63021;52.836;6.376;2023-01-26T13:12:45;102535.41;;;7.52;77.42
55456;BME280;63021;52.836;6.376;2023-01-26T13:15:13;102524.81;;;7.52;76.78
55456;BME280;63021;52.836;6.376;2023-01-26T13:17:56;102529.31;;;7.50;76.51
55456;BME280;63021;52.836;6.376;2023-01-26T13:20:27;102528.47;;;7.49;77.08
55456;BME280;63021;52.836;6.376;2023-01-26T13:26:11;102521.56;;;7.46;76.99
55456;BME280;63021;52.836;6.376;2023-01-26T13:28:40;102526.19;;;7.43;76.97
55456;BME280;63021;52.836;6.376;2023-01-26T13:31:08;102522.56;;;7.44;76.60
55456;BME280;63021;52.836;6.376;2023-01-26T13:33:34;102521.72;;;7.43;76.80
55456;BME280;63021;52.836;6.376;2023-01-26T13:36:02;102520.72;;;7.46;77.24
55456;BME280;63021;52.836;6.376;2023-01-26T13:38:37;102526.00;;;7.46;76.98
55456;BME280;63021;52.836;6.376;2023-01-26T13:41:11;102522.25;;;7.50;77.65
55456;BME280;63021;52.836;6.376;2023-01-26T13:46:11;102527.56;;;7.50;76.62
55456;BME280;63021;52.836;6.376;2023-01-26T13:51:04;102530.53;;;7.44;75.61
55456;BME280;63021;52.836;6.376;2023-01-26T13:53:38;102528.84;;;7.43;76.37
55456;BME280;63021;52.836;6.376;2023-01-26T13:59:02;102537.00;;;7.38;75.22
55456;BME280;63021;52.836;6.376;2023-01-26T14:01:28;102538.91;;;7.36;75.56
55456;BME280;63021;52.836;6.376;2023-01-26T14:04:08;102539.00;;;7.35;75.66
55456;BME280;63021;52.836;6.376;2023-01-26T14:06:36;102540.94;;;7.31;75.80
55456;BME280;63021;52.836;6.376;2023-01-26T14:09:03;102542.81;;;7.29;75.41
55456;BME280;63021;52.836;6.376;2023-01-26T14:11:31;102544.72;;;7.27;74.58
55456;BME280;63021;52.836;6.376;2023-01-26T14:13:58;102536.91;;;7.24;74.87
55456;BME280;63021;52.836;6.376;2023-01-26T14:16:33;102530.84;;;7.22;74.56
55456;BME280;63021;52.836;6.376;2023-01-26T14:19:17;102536.31;;;7.19;74.57
55456;BME280;63021;52.836;6.376;2023-01-26T14:21:57;102528.53;;;7.16;74.21
55456;BME280;63021;52.836;6.376;2023-01-26T14:24:36;102544.66;;;7.11;74.28
55456;BME280;63021;52.836;6.376;2023-01-26T14:27:04;102544.75;;;7.09;73.20
55456;BME280;63021;52.836;6.376;2023-01-26T14:29:36;102551.94;;;7.07;73.82
55456;BME280;63021;52.836;6.376;2023-01-26T14:32:03;102545.88;;;7.05;73.60
55456;BME280;63021;52.836;6.376;2023-01-26T14:34:29;102545.09;;;7.03;73.45
55456;BME280;63021;52.836;6.376;2023-01-26T14:37:07;102549.63;;;7.01;72.78